Time,TemperatureF,DewpointF,PressureIn,WindDirection,WindDirectionDegrees,WindSpeedMPH,WindSpeedGustMPH,Humidity,HourlyPrecipIn,Conditions,Clouds,dailyrainin,SolarRadiationWatts/m^2,SoftwareType,DateUTC
2013-02-06 00:11:00,41.0,37.0,-100.00,ESE,111,0.0,0.0,86,0.00,,,0.01,0.000000,,2013-02-06 10:11:00,
2013-02-06 00:21:00,41.0,37.0,-100.00,ESE,111,0.0,0.0,86,0.00,,,0.01,0.000000,,2013-02-06 10:21:00,
2013-02-06 00:31:00,41.0,37.0,-100.00,ESE,111,0.0,0.0,86,0.00,,,0.01,0.000000,,2013-02-06 10:31:00,
2013-02-06 00:41:00,41.0,37.0,-100.00,ESE,111,0.0,0.0,86,0.00,,,0.01,0.000000,,2013-02-06 10:41:00,
2013-02-06 01:11:00,41.0,37.0,-100.00,ESE,107,0.0,0.0,87,0.00,,,0.01,0.000000,,2013-02-06 11:11:00,
2013-02-06 01:22:00,41.0,37.0,-100.00,ESE,107,0.0,0.0,87,0.00,,,0.01,0.000000,,2013-02-06 11:22:00,
2013-02-06 01:32:00,41.0,37.0,-100.00,ESE,107,0.0,0.0,87,0.00,,,0.01,0.000000,,2013-02-06 11:32:00,
2013-02-06 01:42:00,41.0,37.0,-100.00,ESE,107,0.0,0.0,87,0.00,,,0.01,0.000000,,2013-02-06 11:42:00,
2013-02-06 02:12:00,43.0,41.0,-100.00,East,84,0.0,0.0,91,0.00,,,0.01,0.000000,,2013-02-06 12:12:00,
2013-02-06 02:22:00,43.0,41.0,-100.00,East,84,0.0,0.0,91,0.00,,,0.01,0.000000,,2013-02-06 12:22:00,
2013-02-06 02:32:00,43.0,41.0,-100.00,East,84,0.0,0.0,91,0.00,,,0.01,0.000000,,2013-02-06 12:32:00,
2013-02-06 02:42:00,43.0,41.0,-100.00,East,84,0.0,0.0,91,0.00,,,0.01,0.000000,,2013-02-06 12:42:00,
2013-02-06 03:11:00,44.0,38.0,-100.00,ESE,104,3.0,6.0,78,0.00,,,0.01,0.000000,,2013-02-06 13:11:00,
2013-02-06 03:21:00,44.0,38.0,-100.00,ESE,104,3.0,6.0,78,0.00,,,0.01,0.000000,,2013-02-06 13:21:00,
2013-02-06 03:31:00,44.0,38.0,-100.00,ESE,104,3.0,6.0,78,0.00,,,0.01,0.000000,,2013-02-06 13:31:00,
2013-02-06 03:42:00,44.0,38.0,-100.00,ESE,104,3.0,6.0,78,0.00,,,0.01,0.000000,,2013-02-06 13:42:00,
2013-02-06 04:11:00,46.0,41.0,-100.00,ENE,70,7.0,9.0,81,0.00,,,0.01,0.000000,,2013-02-06 14:11:00,
2013-02-06 04:21:00,46.0,41.0,-100.00,ENE,70,7.0,9.0,81,0.00,,,0.01,0.000000,,2013-02-06 14:21:00,
2013-02-06 04:31:00,46.0,41.0,-100.00,ENE,70,7.0,9.0,81,0.00,,,0.01,0.000000,,2013-02-06 14:31:00,
2013-02-06 04:41:00,46.0,41.0,-100.00,ENE,70,7.0,9.0,81,0.00,,,0.01,0.000000,,2013-02-06 14:41:00,
2013-02-06 05:11:00,44.0,41.0,-100.00,East,86,3.0,6.0,88,0.00,,,0.01,0.000000,,2013-02-06 15:11:00,
2013-02-06 05:21:00,44.0,41.0,-100.00,East,86,3.0,6.0,88,0.00,,,0.01,0.000000,,2013-02-06 15:21:00,
2013-02-06 05:31:00,44.0,41.0,-100.00,East,86,3.0,6.0,88,0.00,,,0.01,0.000000,,2013-02-06 15:31:00,
2013-02-06 05:41:00,44.0,41.0,-100.00,East,86,3.0,6.0,88,0.00,,,0.01,0.000000,,2013-02-06 15:41:00,
2013-02-06 06:11:00,44.0,40.0,-100.00,ESE,108,3.0,6.0,87,0.00,,,0.01,0.000000,,2013-02-06 16:11:00,
2013-02-06 06:21:00,44.0,40.0,-100.00,ESE,108,3.0,6.0,87,0.00,,,0.01,0.000000,,2013-02-06 16:21:00,
2013-02-06 06:32:00,44.0,40.0,-100.00,ESE,108,3.0,6.0,87,0.00,,,0.01,0.000000,,2013-02-06 16:32:00,
2013-02-06 06:41:00,44.0,40.0,-100.00,ESE,108,3.0,6.0,87,0.00,,,0.01,0.000000,,2013-02-06 16:41:00,
2013-02-06 07:11:00,45.0,41.0,-100.00,East,89,3.0,8.0,87,0.00,,,0.01,0.000000,,2013-02-06 17:11:00,
2013-02-06 07:21:00,45.0,41.0,-100.00,East,89,3.0,8.0,87,0.00,,,0.01,0.000000,,2013-02-06 17:21:00,
2013-02-06 07:32:00,45.0,41.0,-100.00,East,89,3.0,8.0,87,0.00,,,0.01,0.000000,,2013-02-06 17:32:00,
2013-02-06 07:41:00,45.0,41.0,-100.00,East,89,3.0,8.0,87,0.00,,,0.01,0.000000,,2013-02-06 17:41:00,
2013-02-06 08:11:00,46.0,39.0,-100.00,ENE,72,6.0,8.0,77,0.00,,,0.01,9.000000,,2013-02-06 18:11:00,
2013-02-06 08:22:00,46.0,39.0,-100.00,ENE,72,6.0,8.0,77,0.00,,,0.01,9.000000,,2013-02-06 18:22:00,
2013-02-06 08:32:00,46.0,39.0,-100.00,ENE,72,6.0,8.0,77,0.00,,,0.01,9.000000,,2013-02-06 18:32:00,
2013-02-06 08:41:00,46.0,39.0,-100.00,ENE,72,6.0,8.0,77,0.00,,,0.01,9.000000,,2013-02-06 18:41:00,
2013-02-06 09:11:00,51.0,39.0,-100.00,SSE,149,2.0,8.0,64,0.00,,,0.01,104.000000,,2013-02-06 19:11:00,
2013-02-06 09:21:00,51.0,39.0,-100.00,SSE,149,2.0,8.0,64,0.00,,,0.01,104.000000,,2013-02-06 19:21:00,
2013-02-06 09:31:00,51.0,39.0,-100.00,SSE,149,2.0,8.0,64,0.00,,,0.01,104.000000,,2013-02-06 19:31:00,
2013-02-06 09:41:00,51.0,39.0,-100.00,SSE,149,2.0,8.0,64,0.00,,,0.01,104.000000,,2013-02-06 19:41:00,
2013-02-06 10:11:00,53.0,47.0,-100.00,NW,312,5.0,8.0,80,0.00,,,0.01,465.000000,,2013-02-06 20:11:00,
2013-02-06 10:21:00,53.0,47.0,-100.00,NW,312,5.0,8.0,80,0.00,,,0.01,465.000000,,2013-02-06 20:21:00,
2013-02-06 10:31:00,53.0,47.0,-100.00,NW,312,5.0,8.0,80,0.00,,,0.01,465.000000,,2013-02-06 20:31:00,
2013-02-06 10:41:00,53.0,47.0,-100.00,NW,312,5.0,8.0,80,0.00,,,0.01,465.000000,,2013-02-06 20:41:00,
2013-02-06 11:11:00,51.0,49.0,-100.00,NW,310,3.0,7.0,93,0.00,,,0.01,333.000000,,2013-02-06 21:11:00,
2013-02-06 11:21:00,51.0,49.0,-100.00,NW,310,3.0,7.0,93,0.00,,,0.01,333.000000,,2013-02-06 21:21:00,
2013-02-06 11:31:00,51.0,49.0,-100.00,NW,310,3.0,7.0,93,0.00,,,0.01,333.000000,,2013-02-06 21:31:00,
2013-02-06 11:41:00,51.0,49.0,-100.00,NW,310,3.0,7.0,93,0.00,,,0.01,333.000000,,2013-02-06 21:41:00,
2013-02-06 12:11:00,52.0,50.0,-100.00,WNW,297,3.0,8.0,94,0.00,,,0.01,203.000000,,2013-02-06 22:11:00,
2013-02-06 12:21:00,52.0,50.0,-100.00,WNW,297,3.0,8.0,94,0.00,,,0.01,203.000000,,2013-02-06 22:21:00,
2013-02-06 12:31:00,52.0,50.0,-100.00,WNW,297,3.0,8.0,94,0.00,,,0.01,203.000000,,2013-02-06 22:31:00,
2013-02-06 12:41:00,52.0,50.0,-100.00,WNW,297,3.0,8.0,94,0.00,,,0.01,203.000000,,2013-02-06 22:41:00,
2013-02-06 13:11:00,53.0,50.0,-100.00,NW,322,3.0,7.0,91,0.00,,,0.01,312.000000,,2013-02-06 23:11:00,
2013-02-06 13:21:00,53.0,50.0,-100.00,NW,322,3.0,7.0,91,0.00,,,0.01,312.000000,,2013-02-06 23:21:00,
2013-02-06 13:31:00,53.0,50.0,-100.00,NW,322,3.0,7.0,91,0.00,,,0.01,312.000000,,2013-02-06 23:31:00,
2013-02-06 13:41:00,53.0,50.0,-100.00,NW,322,3.0,7.0,91,0.00,,,0.01,312.000000,,2013-02-06 23:41:00,
2013-02-06 14:11:00,52.0,51.0,-100.00,WNW,300,5.0,8.0,96,0.00,,,0.01,252.000000,,2013-02-07 00:11:00,
2013-02-06 14:21:00,52.0,51.0,-100.00,WNW,300,5.0,8.0,96,0.00,,,0.01,252.000000,,2013-02-07 00:21:00,
2013-02-06 14:31:00,52.0,51.0,-100.00,WNW,300,5.0,8.0,96,0.00,,,0.01,252.000000,,2013-02-07 00:31:00,
2013-02-06 14:41:00,52.0,51.0,-100.00,WNW,300,5.0,8.0,96,0.00,,,0.01,252.000000,,2013-02-07 00:41:00,
2013-02-06 15:11:00,56.0,54.0,-100.00,West,263,4.0,10.0,94,0.00,,,0.01,256.000000,,2013-02-07 01:11:00,
2013-02-06 15:21:00,56.0,54.0,-100.00,West,263,4.0,10.0,94,0.00,,,0.01,256.000000,,2013-02-07 01:21:00,
2013-02-06 15:31:00,56.0,54.0,-100.00,West,263,4.0,10.0,94,0.00,,,0.01,256.000000,,2013-02-07 01:31:00,
2013-02-06 15:41:00,56.0,54.0,-100.00,West,263,4.0,10.0,94,0.00,,,0.01,256.000000,,2013-02-07 01:41:00,
2013-02-06 16:11:00,53.0,52.0,-100.00,NW,307,3.0,9.0,98,0.00,,,0.01,218.000000,,2013-02-07 02:11:00,
2013-02-06 16:21:00,53.0,52.0,-100.00,NW,307,3.0,9.0,98,0.00,,,0.01,218.000000,,2013-02-07 02:21:00,
2013-02-06 16:31:00,53.0,52.0,-100.00,NW,307,3.0,9.0,98,0.00,,,0.01,218.000000,,2013-02-07 02:31:00,
2013-02-06 16:41:00,53.0,52.0,-100.00,NW,307,3.0,9.0,98,0.00,,,0.01,218.000000,,2013-02-07 02:41:00,
2013-02-06 17:11:00,50.0,50.0,-100.00,WNW,293,4.0,8.0,99,0.03,,,0.04,96.000000,,2013-02-07 03:11:00,
2013-02-06 17:21:00,50.0,50.0,-100.00,WNW,293,4.0,8.0,99,0.03,,,0.04,96.000000,,2013-02-07 03:21:00,
2013-02-06 17:31:00,50.0,50.0,-100.00,WNW,293,4.0,8.0,99,0.03,,,0.04,96.000000,,2013-02-07 03:31:00,
2013-02-06 17:41:00,50.0,50.0,-100.00,WNW,293,4.0,8.0,99,0.03,,,0.04,96.000000,,2013-02-07 03:41:00,
2013-02-06 18:11:00,49.0,49.0,-100.00,NNW,330,3.0,6.0,100,0.11,,,0.14,28.000000,,2013-02-07 04:11:00,
2013-02-06 18:22:00,49.0,49.0,-100.00,NNW,330,3.0,6.0,100,0.11,,,0.14,28.000000,,2013-02-07 04:22:00,
2013-02-06 18:31:00,49.0,49.0,-100.00,NNW,330,3.0,6.0,100,0.11,,,0.14,28.000000,,2013-02-07 04:31:00,
2013-02-06 18:41:00,49.0,49.0,-100.00,NNW,330,3.0,6.0,100,0.11,,,0.14,28.000000,,2013-02-07 04:41:00,
2013-02-06 19:11:00,49.0,49.0,-100.00,SE,125,3.0,5.0,100,0.04,,,0.18,6.000000,,2013-02-07 05:11:00,
2013-02-06 19:21:00,49.0,49.0,-100.00,SE,125,3.0,5.0,100,0.04,,,0.18,6.000000,,2013-02-07 05:21:00,
2013-02-06 19:32:00,49.0,49.0,-100.00,SE,125,3.0,5.0,100,0.04,,,0.18,6.000000,,2013-02-07 05:32:00,
2013-02-06 19:42:00,49.0,49.0,-100.00,SE,125,3.0,5.0,100,0.04,,,0.18,6.000000,,2013-02-07 05:42:00,
2013-02-06 20:11:00,47.0,47.0,-100.00,East,85,5.0,6.0,100,0.00,,,0.18,0.000000,,2013-02-07 06:11:00,
2013-02-06 20:22:00,47.0,47.0,-100.00,East,85,5.0,6.0,100,0.00,,,0.18,0.000000,,2013-02-07 06:22:00,
2013-02-06 20:31:00,47.0,47.0,-100.00,East,85,5.0,6.0,100,0.00,,,0.18,0.000000,,2013-02-07 06:31:00,
2013-02-06 20:43:00,47.0,47.0,-100.00,East,85,5.0,6.0,100,0.00,,,0.18,0.000000,,2013-02-07 06:43:00,
2013-02-06 21:11:00,46.0,45.0,-100.00,ENE,70,4.0,8.0,96,0.00,,,0.18,0.000000,,2013-02-07 07:11:00,
2013-02-06 21:21:00,46.0,45.0,-100.00,ENE,70,4.0,8.0,96,0.00,,,0.18,0.000000,,2013-02-07 07:21:00,
2013-02-06 21:31:00,46.0,45.0,-100.00,ENE,70,4.0,8.0,96,0.00,,,0.18,0.000000,,2013-02-07 07:31:00,
2013-02-06 21:41:00,46.0,45.0,-100.00,ENE,70,4.0,8.0,96,0.00,,,0.18,0.000000,,2013-02-07 07:41:00,
2013-02-06 22:11:00,46.0,45.0,-100.00,ENE,66,4.0,7.0,95,0.00,,,0.18,0.000000,,2013-02-07 08:11:00,
2013-02-06 22:21:00,46.0,45.0,-100.00,ENE,66,4.0,7.0,95,0.00,,,0.18,0.000000,,2013-02-07 08:21:00,
2013-02-06 22:31:00,46.0,45.0,-100.00,ENE,66,4.0,7.0,95,0.00,,,0.18,0.000000,,2013-02-07 08:31:00,
2013-02-06 22:41:00,46.0,45.0,-100.00,ENE,66,4.0,7.0,95,0.00,,,0.18,0.000000,,2013-02-07 08:41:00,
2013-02-06 23:11:00,46.0,44.0,-100.00,ESE,116,4.0,6.0,94,0.01,,,0.19,0.000000,,2013-02-07 09:11:00,
2013-02-06 23:21:00,46.0,44.0,-100.00,ESE,116,4.0,6.0,94,0.01,,,0.19,0.000000,,2013-02-07 09:21:00,
2013-02-06 23:31:00,46.0,44.0,-100.00,ESE,116,4.0,6.0,94,0.01,,,0.19,0.000000,,2013-02-07 09:31:00,
2013-02-06 23:41:00,46.0,44.0,-100.00,ESE,116,4.0,6.0,94,0.01,,,0.19,0.000000,,2013-02-07 09:41:00,